Humidity-temperature Sensor

Selected Measurement Type: Air Temperature

 
Air Temperature [°C]     6 entries per hour
Showing data from 9/6/2022 (06:30:00 Z) to 9/5/2022 (00:01:00 Z)
Previous Next [ Day | 3-Days | 7-Days ]
First Last
Prev [ Day | 3-Days | 7-Days ] Next
First Last

Start Time:     :
End Time:     :     
Time (in GMT) :00 :50 :40 :30 :20 :10
Previous Next [ Day | 3-Days | 7-Days ]
First Last
Prev [ Day | 3-Days | 7-Days ] Next
First Last


123 => good data
MM => data is determined as missing
-- => data not received/configured
Back to Top Back to Top
9/6/2022 07:00 to 6:10 -- -- -- 27.63 27.65 27.73
9/6/2022 06:00 to 5:10 27.67 27.61 27.78 27.76 27.71 27.72
9/6/2022 05:00 to 4:10 27.64 27.71 27.69 27.76 27.90 27.71
9/6/2022 04:00 to 3:10 27.82 27.75 27.81 27.88 27.83 27.83
9/6/2022 03:00 to 2:10 27.77 27.82 27.73 27.63 27.73 27.76
9/6/2022 02:00 to 1:10 27.84 27.70 27.73 27.78 27.83 28.01
9/6/2022 01:00 to 0:10 27.77 27.69 27.73 27.86 27.64 27.92
9/6/2022 00:00 to 23:10 -- -- -- -- -- --
9/5/2022 23:00 to 22:10 27.72 27.78 27.64 27.70 27.62 27.66
9/5/2022 22:00 to 21:10 27.82 27.75 27.70 27.73 27.86 27.87
9/5/2022 21:00 to 20:10 27.97 27.80 27.84 27.73 27.87 27.91
9/5/2022 20:00 to 19:10 27.83 27.88 27.59 27.65 27.75 27.74
9/5/2022 19:00 to 18:10 27.49 27.67 27.54 27.41 27.37 27.45
9/5/2022 18:00 to 17:10 27.38 27.30 27.40 27.44 27.12 27.35
9/5/2022 17:00 to 16:10 27.30 27.34 27.36 27.34 27.47 27.51
9/5/2022 16:00 to 15:10 27.27 27.33 27.35 27.22 27.40 27.42
9/5/2022 15:00 to 14:10 27.39 27.34 27.36 27.24 27.47 27.34
9/5/2022 14:00 to 13:10 27.48 27.31 27.33 27.46 27.44 27.37
9/5/2022 13:00 to 12:10 27.35 27.49 27.60 27.47 27.67 27.51
9/5/2022 12:00 to 11:10 27.41 27.53 27.58 27.37 27.80 27.58
9/5/2022 11:00 to 10:10 27.63 27.66 27.60 27.70 27.48 27.56
9/5/2022 10:00 to 9:10 27.80 27.58 27.81 27.61 27.74 27.71
9/5/2022 09:00 to 8:10 27.64 27.72 27.74 27.84 27.83 27.80
9/5/2022 08:00 to 7:10 27.75 27.80 27.73 27.70 27.85 27.76
9/5/2022 07:00 to 6:10 27.86 27.87 27.58 27.65 27.82 27.69
9/5/2022 06:00 to 5:10 27.87 27.81 27.94 27.99 27.80 27.90
9/5/2022 05:00 to 4:10 27.96 27.86 27.84 27.92 27.94 27.97
9/5/2022 04:00 to 3:10 27.89 27.75 27.89 27.89 27.81 27.93
9/5/2022 03:00 to 2:10 27.85 27.85 27.69 27.75 27.73 27.92
9/5/2022 02:00 to 1:10 27.68 27.81 27.85 27.73 27.82 27.68
9/5/2022 01:00 to 0:10 27.82 27.75 27.67 27.69 27.75 27.90